KEGE

Eagle County Regional Airport

Airport
ICAO code
KEGE
IATA Code
EGE
Summary
ICAO Region
NAM
ICAO Territory
Location

Gypsum, Colorado

Serving
Eagle
Elevation
6548 ft
Coordinates
39° 38' 33" N , 106° 55' 4" W
KCC
Airport RE
Hot and High Operations
Metar
KEGE 192056Z 28011G17KT 10SM FEW100 26/02 A3007 RMK AO2 SLP091 T02610022 56022

Eagle County Regional Airport, sometimes referred to as Vail/Eagle Airport or the Eagle Vail Airport, is a public airport located 4 nm west of Eagle, Colorado, United States.

Airport map

Aerial View

SKYbrary Partners:

Safety knowledge contributed by: